Time;durP1;ratioP1;P1;durP2;ratioP2;P2;SDS_P1;SDS_P2;PMS_P1;PMS_P2;Temp;Humidity;BMP_temperature;BMP_pressure;BME280_temperature;BME280_humidity;BME280_pressure;Samples;Min_cycle;Max_cycle;Signal;HPM_P1;HPM_P2
2021/12/16 00:01:48;;;;;;;2.25;0.20;;;;;;;;;;1827066;78;26278;-40
2021/12/16 00:31:29;;;;;;;0.23;0.23;;;;;;;;;;1827379;78;27399;-38
2021/12/16 00:34:00;;;;;;;0.30;0.30;;;;;;;;;;1825496;77;26295;-39
2021/12/16 00:36:25;;;;;;;0.28;0.28;;;;;;;;;;1846685;77;26602;-41
2021/12/16 00:38:54;;;;;;;0.42;0.30;;;;;;;;;;1822870;77;26221;-39
2021/12/16 00:41:21;;;;;;;0.28;0.20;;;;;;;;;;1836888;77;26277;-39
2021/12/16 00:43:56;;;;;;;0.33;0.33;;;;;;;;;;1841947;77;26370;-39
2021/12/16 00:49:18;;;;;;;0.20;0.20;;;;;;;;;;1839467;77;26960;-39
2021/12/16 00:54:16;;;;;;;0.20;0.20;;;;;;;;;;1837007;77;26288;-39
2021/12/16 00:56:45;;;;;;;0.20;0.20;;;;;;;;;;1838025;77;26339;-39
2021/12/16 00:59:15;;;;;;;0.37;0.30;;;;;;;;;;1829342;77;26244;-39
2021/12/16 01:01:58;;;;;;;0.30;0.20;;;;;;;;;;1838731;77;26289;-39
2021/12/16 01:04:49;;;;;;;0.20;0.20;;;;;;;;;;1828078;77;27255;-39
2021/12/16 01:10:15;;;;;;;0.20;0.20;;;;;;;;;;1820787;77;26302;-41
2021/12/16 01:34:27;;;;;;;0.20;0.20;;;;;;;;;;1826468;77;26996;-39
2021/12/16 01:37:34;;;;;;;0.28;0.28;;;;;;;;;;1834826;78;26288;-39
2021/12/16 01:42:25;;;;;;;0.85;0.35;;;;;;;;;;1830644;77;26277;-39
2021/12/16 01:47:43;;;;;;;0.20;0.20;;;;;;;;;;1827636;78;26340;-39
2021/12/16 01:52:50;;;;;;;0.23;0.20;;;;;;;;;;1827505;78;26420;-40
2021/12/16 01:57:39;;;;;;;0.23;0.23;;;;;;;;;;1827672;78;26368;-40
2021/12/16 02:00:07;;;;;;;0.20;0.20;;;;;;;;;;1834021;78;26332;-40
2021/12/16 02:02:43;;;;;;;0.20;0.20;;;;;;;;;;1826492;78;26407;-40
2021/12/16 02:05:23;;;;;;;0.10;0.10;;;;;;;;;;1821998;78;26286;-41
2021/12/16 02:10:14;;;;;;;0.75;0.30;;;;;;;;;;1812641;78;26277;-40
2021/12/16 02:13:19;;;;;;;0.10;0.10;;;;;;;;;;1821145;77;26742;-41
2021/12/16 02:29:31;;;;;;;0.20;0.20;;;;;;;;;;1823068;77;26835;-40
2021/12/16 02:37:01;;;;;;;0.20;0.20;;;;;;;;;;1839074;78;26265;-40
2021/12/16 02:39:30;;;;;;;0.20;0.20;;;;;;;;;;1824048;78;26213;-41
2021/12/16 02:41:59;;;;;;;0.40;0.35;;;;;;;;;;1827757;77;26214;-40
2021/12/16 02:44:34;;;;;;;0.20;0.20;;;;;;;;;;1825005;78;26357;-40
2021/12/16 02:49:44;;;;;;;0.20;0.20;;;;;;;;;;1817887;78;26682;-40
2021/12/16 02:52:12;;;;;;;0.20;0.20;;;;;;;;;;1825916;78;26230;-41
2021/12/16 02:54:40;;;;;;;0.10;0.10;;;;;;;;;;1827863;78;26317;-40
2021/12/16 02:57:08;;;;;;;0.20;0.20;;;;;;;;;;1828896;78;26218;-42
2021/12/16 02:59:35;;;;;;;0.20;0.20;;;;;;;;;;1810728;78;26276;-42
2021/12/16 03:02:07;;;;;;;1.17;0.23;;;;;;;;;;1822692;78;26344;-40
2021/12/16 03:04:34;;;;;;;0.20;0.20;;;;;;;;;;1833677;78;26304;-40
2021/12/16 03:07:01;;;;;;;0.20;0.20;;;;;;;;;;1828678;78;27266;-40
2021/12/16 03:14:39;;;;;;;0.30;0.30;;;;;;;;;;1838123;78;26295;-40
2021/12/16 03:18:07;;;;;;;0.35;0.25;;;;;;;;;;1826464;78;26225;-40
2021/12/16 03:19:54;;;;;;;0.10;0.10;;;;;;;;;;1795355;78;26548;-40
2021/12/16 03:22:19;;;;;;;0.20;0.20;;;;;;;;;;1811453;78;26362;-42
2021/12/16 03:25:08;;;;;;;0.20;0.20;;;;;;;;;;1828510;78;26350;-40
2021/12/16 03:27:40;;;;;;;0.20;0.20;;;;;;;;;;1833634;77;26734;-42
2021/12/16 03:37:54;;;;;;;0.37;0.30;;;;;;;;;;1822879;78;26289;-40
2021/12/16 03:40:21;;;;;;;0.30;0.30;;;;;;;;;;1833301;77;27371;-40
2021/12/16 03:42:51;;;;;;;0.20;0.20;;;;;;;;;;1831441;78;27005;-40
2021/12/16 03:48:09;;;;;;;0.20;0.20;;;;;;;;;;1832395;78;26787;-39
2021/12/16 03:50:37;;;;;;;0.10;0.10;;;;;;;;;;1828597;78;26768;-39
2021/12/16 03:53:06;;;;;;;0.20;0.20;;;;;;;;;;1824628;78;26264;-39
2021/12/16 03:55:34;;;;;;;0.10;0.10;;;;;;;;;;1833589;78;26320;-39
2021/12/16 03:58:01;;;;;;;0.33;0.33;;;;;;;;;;1829625;78;26218;-40
2021/12/16 04:00:30;;;;;;;0.20;0.20;;;;;;;;;;1825264;78;26701;-40
2021/12/16 04:02:58;;;;;;;0.10;0.10;;;;;;;;;;1828342;78;27343;-40
2021/12/16 04:05:26;;;;;;;0.23;0.20;;;;;;;;;;1835918;78;26336;-40
2021/12/16 04:07:54;;;;;;;0.20;0.20;;;;;;;;;;1838909;78;26332;-39
2021/12/16 04:10:23;;;;;;;0.23;0.23;;;;;;;;;;1827576;78;26253;-40
2021/12/16 04:12:51;;;;;;;0.23;0.23;;;;;;;;;;1829183;78;26210;-39
2021/12/16 04:15:18;;;;;;;0.25;0.25;;;;;;;;;;1834752;78;26273;-42
2021/12/16 04:17:46;;;;;;;0.20;0.20;;;;;;;;;;1838951;78;26225;-40
2021/12/16 04:20:15;;;;;;;0.30;0.30;;;;;;;;;;1825590;78;26308;-40
2021/12/16 04:22:44;;;;;;;0.20;0.20;;;;;;;;;;1815415;78;26276;-40
2021/12/16 04:25:13;;;;;;;0.30;0.30;;;;;;;;;;1833767;78;26302;-40
2021/12/16 04:27:41;;;;;;;0.20;0.20;;;;;;;;;;1814605;78;26392;-39
2021/12/16 04:30:09;;;;;;;0.20;0.20;;;;;;;;;;1837737;78;26823;-43
2021/12/16 04:32:37;;;;;;;0.35;0.20;;;;;;;;;;1818858;78;26328;-39
2021/12/16 04:35:05;;;;;;;0.10;0.10;;;;;;;;;;1841406;77;26759;-41
2021/12/16 04:37:32;;;;;;;0.20;0.20;;;;;;;;;;1830203;77;26315;-39
2021/12/16 04:40:02;;;;;;;0.20;0.20;;;;;;;;;;1839823;77;27580;-39
2021/12/16 04:42:29;;;;;;;0.15;0.15;;;;;;;;;;1841617;77;26693;-39
2021/12/16 04:44:57;;;;;;;0.20;0.20;;;;;;;;;;1848126;77;26221;-39
2021/12/16 04:47:24;;;;;;;0.20;0.20;;;;;;;;;;1858679;76;26256;-39
2021/12/16 04:49:52;;;;;;;0.10;0.10;;;;;;;;;;1840772;77;26807;-39
2021/12/16 04:52:19;;;;;;;0.30;0.30;;;;;;;;;;1838651;77;26209;-40
2021/12/16 04:54:47;;;;;;;0.10;0.10;;;;;;;;;;1828872;77;26641;-40
2021/12/16 04:57:16;;;;;;;0.17;0.17;;;;;;;;;;1828508;77;26267;-40
2021/12/16 04:59:44;;;;;;;0.45;0.25;;;;;;;;;;1823282;77;26269;-39
2021/12/16 05:02:19;;;;;;;0.10;0.10;;;;;;;;;;1825854;77;26275;-39
2021/12/16 05:04:46;;;;;;;0.20;0.20;;;;;;;;;;1832831;77;26720;-39
2021/12/16 05:07:14;;;;;;;0.10;0.10;;;;;;;;;;1846533;77;26256;-40
2021/12/16 05:12:12;;;;;;;1.35;0.20;;;;;;;;;;1827405;78;26280;-40
2021/12/16 05:14:40;;;;;;;0.62;0.20;;;;;;;;;;1827520;78;26292;-40
2021/12/16 05:17:21;;;;;;;0.17;0.17;;;;;;;;;;1828662;78;26288;-39
2021/12/16 05:19:39;;;;;;;0.28;0.20;;;;;;;;;;1819154;78;26769;-39
2021/12/16 05:24:53;;;;;;;0.33;0.10;;;;;;;;;;1826686;77;26784;-39
2021/12/16 05:27:20;;;;;;;0.20;0.17;;;;;;;;;;1847915;77;26281;-41
2021/12/16 05:29:48;;;;;;;0.20;0.20;;;;;;;;;;1822658;77;26940;-39
2021/12/16 05:32:15;;;;;;;1.10;0.30;;;;;;;;;;1817425;79;26357;-40
2021/12/16 05:34:42;;;;;;;0.23;0.20;;;;;;;;;;1816275;79;26327;-39
2021/12/16 05:37:10;;;;;;;0.20;0.20;;;;;;;;;;1836455;78;26205;-40
2021/12/16 05:39:37;;;;;;;0.35;0.35;;;;;;;;;;1840724;77;25412;-40
2021/12/16 05:42:05;;;;;;;1.02;0.30;;;;;;;;;;1837893;78;26771;-39
2021/12/16 05:44:32;;;;;;;0.23;0.20;;;;;;;;;;1823007;77;26306;-42
2021/12/16 05:47:00;;;;;;;3.87;0.50;;;;;;;;;;1828639;78;26833;-38
2021/12/16 05:49:27;;;;;;;6.03;1.10;;;;;;;;;;1840878;78;26285;-37
2021/12/16 05:51:54;;;;;;;3.75;0.70;;;;;;;;;;1844657;78;26851;-37
2021/12/16 05:54:22;;;;;;;6.67;0.60;;;;;;;;;;1843576;78;26355;-38
2021/12/16 05:56:50;;;;;;;13.03;0.80;;;;;;;;;;1844925;78;26669;-37
2021/12/16 05:59:19;;;;;;;2.30;0.60;;;;;;;;;;1830254;78;26286;-37
2021/12/16 06:01:47;;;;;;;2.95;0.70;;;;;;;;;;1826138;78;26858;-37
2021/12/16 06:04:15;;;;;;;4.70;0.60;;;;;;;;;;1814918;79;26304;-38
2021/12/16 06:06:42;;;;;;;2.65;0.47;;;;;;;;;;1814871;79;26741;-37
2021/12/16 06:09:09;;;;;;;1.27;0.55;;;;;;;;;;1814986;79;26217;-38
2021/12/16 06:11:41;;;;;;;2.40;0.60;;;;;;;;;;1814506;77;26356;-37
2021/12/16 06:27:47;;;;;;;10.08;0.85;;;;;;;;;;1835050;78;26318;-38
2021/12/16 06:30:15;;;;;;;3.83;0.90;;;;;;;;;;1814276;77;26577;-38
2021/12/16 06:32:43;;;;;;;3.60;0.78;;;;;;;;;;1836228;77;26758;-38
2021/12/16 06:35:11;;;;;;;2.85;0.50;;;;;;;;;;1833082;78;26388;-38
2021/12/16 06:37:39;;;;;;;10.48;0.78;;;;;;;;;;1821942;79;26308;-38
2021/12/16 06:40:08;;;;;;;1.55;0.50;;;;;;;;;;1822632;77;26217;-38
2021/12/16 06:42:39;;;;;;;1.85;0.50;;;;;;;;;;1830325;77;26740;-38
2021/12/16 06:45:11;;;;;;;3.65;0.50;;;;;;;;;;1825902;78;26374;-38
2021/12/16 06:48:26;;;;;;;3.50;0.80;;;;;;;;;;1835452;78;26355;-38
2021/12/16 06:50:06;;;;;;;1.17;0.37;;;;;;;;;;1813919;78;26775;-39
2021/12/16 06:52:39;;;;;;;5.12;0.70;;;;;;;;;;1837161;78;26249;-38
2021/12/16 06:55:10;;;;;;;3.05;0.50;;;;;;;;;;1825867;78;26314;-38
2021/12/16 07:00:12;;;;;;;0.95;0.42;;;;;;;;;;1811641;79;26322;-37
2021/12/16 07:05:11;;;;;;;2.75;0.62;;;;;;;;;;1808576;79;26773;-38
2021/12/16 07:07:38;;;;;;;1.17;0.60;;;;;;;;;;1808640;79;26363;-38
2021/12/16 07:10:07;;;;;;;2.37;0.55;;;;;;;;;;1808741;79;26657;-38
2021/12/16 07:12:36;;;;;;;2.15;0.50;;;;;;;;;;1808547;79;26323;-38
2021/12/16 07:15:08;;;;;;;0.60;0.40;;;;;;;;;;1808445;77;26296;-38
2021/12/16 07:17:37;;;;;;;0.57;0.47;;;;;;;;;;1816695;78;26224;-38
2021/12/16 07:20:05;;;;;;;0.40;0.40;;;;;;;;;;1792005;79;26222;-38
2021/12/16 07:22:33;;;;;;;2.45;0.45;;;;;;;;;;1864105;77;26647;-37
2021/12/16 07:25:03;;;;;;;1.25;0.42;;;;;;;;;;1865691;75;26892;-38
2021/12/16 07:27:32;;;;;;;1.37;0.50;;;;;;;;;;1858853;77;26792;-38
2021/12/16 07:30:00;;;;;;;1.32;0.50;;;;;;;;;;1863070;77;26392;-38
2021/12/16 07:32:27;;;;;;;0.78;0.50;;;;;;;;;;1866428;75;26206;-38
2021/12/16 07:34:54;;;;;;;0.42;0.30;;;;;;;;;;1864646;77;26268;-38
2021/12/16 07:37:22;;;;;;;0.57;0.28;;;;;;;;;;1867996;75;26331;-38
2021/12/16 07:39:51;;;;;;;0.30;0.30;;;;;;;;;;1865006;77;26917;-38
2021/12/16 07:42:26;;;;;;;0.37;0.30;;;;;;;;;;1878725;75;26910;-37
2021/12/16 07:44:47;;;;;;;0.33;0.33;;;;;;;;;;1863183;75;26338;-38
2021/12/16 07:47:14;;;;;;;0.40;0.40;;;;;;;;;;1870688;76;26303;-38
2021/12/16 07:49:43;;;;;;;0.30;0.30;;;;;;;;;;1865033;77;26250;-38
2021/12/16 07:52:14;;;;;;;0.47;0.30;;;;;;;;;;1868099;77;26645;-37
2021/12/16 07:54:42;;;;;;;0.35;0.35;;;;;;;;;;1865869;77;26261;-37
2021/12/16 07:57:09;;;;;;;0.45;0.30;;;;;;;;;;1863753;77;26221;-38
2021/12/16 07:59:37;;;;;;;0.20;0.20;;;;;;;;;;1854679;75;26199;-38
2021/12/16 08:02:08;;;;;;;0.70;0.30;;;;;;;;;;1848936;76;26792;-37
2021/12/16 08:04:41;;;;;;;0.20;0.20;;;;;;;;;;1820640;77;26398;-38
2021/12/16 08:07:06;;;;;;;0.13;0.13;;;;;;;;;;1863456;75;26377;-38
2021/12/16 08:09:40;;;;;;;0.20;0.13;;;;;;;;;;1856717;76;26728;-38
2021/12/16 08:12:06;;;;;;;0.30;0.20;;;;;;;;;;1860380;76;26302;-38
2021/12/16 08:14:34;;;;;;;0.70;0.40;;;;;;;;;;1865647;77;26266;-38
2021/12/16 08:17:01;;;;;;;0.33;0.30;;;;;;;;;;1867479;77;26207;-37
2021/12/16 08:19:29;;;;;;;0.20;0.20;;;;;;;;;;1868524;77;26266;-38
2021/12/16 08:21:57;;;;;;;0.33;0.20;;;;;;;;;;1856827;77;26328;-37
2021/12/16 08:24:24;;;;;;;0.30;0.30;;;;;;;;;;1841100;77;26668;-38
2021/12/16 08:26:53;;;;;;;0.10;0.10;;;;;;;;;;1863646;77;26281;-37
2021/12/16 08:29:23;;;;;;;0.33;0.30;;;;;;;;;;1838923;77;26291;-38
2021/12/16 08:31:51;;;;;;;0.17;0.17;;;;;;;;;;1837945;78;26366;-38
2021/12/16 08:34:18;;;;;;;0.20;0.20;;;;;;;;;;1838172;78;26260;-38
2021/12/16 08:36:46;;;;;;;0.30;0.30;;;;;;;;;;1849608;77;26838;-37
2021/12/16 08:39:15;;;;;;;0.13;0.13;;;;;;;;;;1861502;77;26883;-38
2021/12/16 08:41:44;;;;;;;0.20;0.20;;;;;;;;;;1887890;75;26256;-38
2021/12/16 08:44:12;;;;;;;0.37;0.25;;;;;;;;;;1869032;77;26343;-38
2021/12/16 08:46:41;;;;;;;0.30;0.30;;;;;;;;;;1837256;77;25715;-38
2021/12/16 08:49:08;;;;;;;0.45;0.20;;;;;;;;;;1802748;79;26691;-39
2021/12/16 08:51:37;;;;;;;0.10;0.10;;;;;;;;;;1802769;79;26274;-38
2021/12/16 08:54:05;;;;;;;0.20;0.20;;;;;;;;;;1807616;79;26282;-38
2021/12/16 08:56:33;;;;;;;0.30;0.30;;;;;;;;;;1807317;79;26313;-38
2021/12/16 08:59:01;;;;;;;0.55;0.20;;;;;;;;;;1817938;78;26320;-38
2021/12/16 09:01:30;;;;;;;0.40;0.28;;;;;;;;;;1803144;79;26371;-38
2021/12/16 09:03:58;;;;;;;0.20;0.20;;;;;;;;;;1805600;79;26318;-38
2021/12/16 09:06:26;;;;;;;0.13;0.13;;;;;;;;;;1837574;78;26369;-38
2021/12/16 09:08:54;;;;;;;0.20;0.20;;;;;;;;;;1837464;78;26268;-38
2021/12/16 09:11:23;;;;;;;0.20;0.20;;;;;;;;;;1837307;78;26267;-38
2021/12/16 09:13:52;;;;;;;0.08;0.08;;;;;;;;;;1837280;78;26291;-38
2021/12/16 09:16:21;;;;;;;0.28;0.20;;;;;;;;;;1836535;78;26272;-38
2021/12/16 09:18:48;;;;;;;0.23;0.23;;;;;;;;;;1835339;78;26732;-38
2021/12/16 09:21:17;;;;;;;0.20;0.20;;;;;;;;;;1833954;78;26284;-38
2021/12/16 09:23:46;;;;;;;0.30;0.30;;;;;;;;;;1807474;79;26340;-38
2021/12/16 09:26:14;;;;;;;0.10;0.10;;;;;;;;;;1777997;81;26307;-38
2021/12/16 09:28:42;;;;;;;0.10;0.10;;;;;;;;;;1815551;78;26286;-38
2021/12/16 09:31:12;;;;;;;0.40;0.40;;;;;;;;;;1837280;78;26227;-38
2021/12/16 09:33:44;;;;;;;0.53;0.30;;;;;;;;;;1837481;78;27614;-38
2021/12/16 09:36:12;;;;;;;0.28;0.28;;;;;;;;;;1868606;77;26333;-38
2021/12/16 09:38:40;;;;;;;0.20;0.20;;;;;;;;;;1816267;77;26764;-38
2021/12/16 09:41:08;;;;;;;1.25;0.23;;;;;;;;;;1829655;77;26214;-38
2021/12/16 09:43:37;;;;;;;0.20;0.20;;;;;;;;;;1836922;77;26284;-38
2021/12/16 09:46:06;;;;;;;0.20;0.20;;;;;;;;;;1810993;79;25715;-38
2021/12/16 09:48:35;;;;;;;0.35;0.15;;;;;;;;;;1822772;78;26742;-38
2021/12/16 09:51:04;;;;;;;0.20;0.20;;;;;;;;;;1841510;78;26698;-38
2021/12/16 09:53:33;;;;;;;0.20;0.20;;;;;;;;;;1841345;78;26583;-38
2021/12/16 09:56:01;;;;;;;0.20;0.20;;;;;;;;;;1841717;78;26827;-38
2021/12/16 09:58:30;;;;;;;0.50;0.20;;;;;;;;;;1809581;78;26320;-38
2021/12/16 10:00:57;;;;;;;0.20;0.20;;;;;;;;;;1810464;79;26331;-37
2021/12/16 10:03:25;;;;;;;1.07;0.10;;;;;;;;;;1810324;79;27044;-38
2021/12/16 10:05:53;;;;;;;0.10;0.10;;;;;;;;;;1810542;79;26300;-38
2021/12/16 10:08:21;;;;;;;0.23;0.23;;;;;;;;;;1810645;79;26276;-38
2021/12/16 10:10:48;;;;;;;0.37;0.37;;;;;;;;;;1803433;79;26903;-37
2021/12/16 10:13:22;;;;;;;0.25;0.25;;;;;;;;;;1781199;80;26295;-38
2021/12/16 10:18:18;;;;;;;0.23;0.23;;;;;;;;;;1784559;79;26869;-38
2021/12/16 10:20:47;;;;;;;0.65;0.20;;;;;;;;;;1785648;79;26296;-38
2021/12/16 10:23:21;;;;;;;0.20;0.20;;;;;;;;;;1781504;80;26886;-38
2021/12/16 10:25:50;;;;;;;0.30;0.30;;;;;;;;;;1777284;80;26590;-38
2021/12/16 10:28:23;;;;;;;0.20;0.20;;;;;;;;;;1779388;80;26306;-38
2021/12/16 10:31:06;;;;;;;0.20;0.20;;;;;;;;;;1781162;80;27226;-38
2021/12/16 10:33:35;;;;;;;0.20;0.20;;;;;;;;;;1792586;79;26400;-38
2021/12/16 10:36:04;;;;;;;0.28;0.20;;;;;;;;;;1796359;79;26807;-38
2021/12/16 10:38:33;;;;;;;0.23;0.17;;;;;;;;;;1811203;78;26845;-38
2021/12/16 10:41:00;;;;;;;0.20;0.20;;;;;;;;;;1825449;78;26722;-38
2021/12/16 10:43:29;;;;;;;0.20;0.20;;;;;;;;;;1825498;78;26334;-38
2021/12/16 10:46:01;;;;;;;0.20;0.20;;;;;;;;;;1816342;78;27026;-37
2021/12/16 10:48:30;;;;;;;0.20;0.20;;;;;;;;;;1806299;78;26306;-38
2021/12/16 10:50:58;;;;;;;0.30;0.30;;;;;;;;;;1796108;80;26258;-38
2021/12/16 10:53:44;;;;;;;0.20;0.20;;;;;;;;;;1795665;80;26392;-37
2021/12/16 10:56:11;;;;;;;0.40;0.40;;;;;;;;;;1795851;80;26868;-38
2021/12/16 10:58:55;;;;;;;0.23;0.23;;;;;;;;;;1811293;78;26287;-38
2021/12/16 11:01:42;;;;;;;0.28;0.28;;;;;;;;;;1816973;78;26355;-38
2021/12/16 11:04:11;;;;;;;0.25;0.15;;;;;;;;;;1795089;80;26309;-39
2021/12/16 11:06:41;;;;;;;0.35;0.23;;;;;;;;;;1795910;80;26306;-38
2021/12/16 11:09:27;;;;;;;0.20;0.10;;;;;;;;;;1796052;80;26399;-38
2021/12/16 11:12:14;;;;;;;0.23;0.23;;;;;;;;;;1816464;78;26283;-38
2021/12/16 11:14:43;;;;;;;1.25;0.20;;;;;;;;;;1825277;78;26779;-38
2021/12/16 11:17:12;;;;;;;0.20;0.20;;;;;;;;;;1825661;78;26665;-39
2021/12/16 11:19:41;;;;;;;0.20;0.20;;;;;;;;;;1805471;78;26296;-38
2021/12/16 11:22:09;;;;;;;0.30;0.30;;;;;;;;;;1797566;78;26305;-38
2021/12/16 11:24:36;;;;;;;0.45;0.40;;;;;;;;;;1796141;78;26381;-38
2021/12/16 11:27:20;;;;;;;0.20;0.20;;;;;;;;;;1796542;78;26368;-38
2021/12/16 11:29:48;;;;;;;0.20;0.20;;;;;;;;;;1800202;78;26325;-38
2021/12/16 11:32:33;;;;;;;0.23;0.23;;;;;;;;;;1796034;80;26384;-37
2021/12/16 11:35:00;;;;;;;0.33;0.33;;;;;;;;;;1796093;80;26309;-37
2021/12/16 11:37:27;;;;;;;0.13;0.13;;;;;;;;;;1794809;78;26713;-37
2021/12/16 11:39:55;;;;;;;0.30;0.30;;;;;;;;;;1790132;80;26357;-37
2021/12/16 11:42:29;;;;;;;0.17;0.17;;;;;;;;;;1806081;78;26275;-37
2021/12/16 11:44:57;;;;;;;0.23;0.23;;;;;;;;;;1813018;79;26256;-36
2021/12/16 11:47:25;;;;;;;0.13;0.13;;;;;;;;;;1815765;77;26280;-37
2021/12/16 11:49:54;;;;;;;0.30;0.30;;;;;;;;;;1811353;78;26561;-37
2021/12/16 11:52:23;;;;;;;0.20;0.20;;;;;;;;;;1818213;79;26287;-37
2021/12/16 11:54:58;;;;;;;0.20;0.20;;;;;;;;;;1823104;78;26276;-37
2021/12/16 11:57:29;;;;;;;0.20;0.20;;;;;;;;;;1819237;79;26598;-37
2021/12/16 11:59:58;;;;;;;0.25;0.20;;;;;;;;;;1815386;79;26700;-38
2021/12/16 12:02:27;;;;;;;0.20;0.20;;;;;;;;;;1803795;79;26394;-37
2021/12/16 12:04:59;;;;;;;0.10;0.10;;;;;;;;;;1782528;80;26346;-37
2021/12/16 12:07:27;;;;;;;0.20;0.20;;;;;;;;;;1732360;80;26243;-37
2021/12/16 12:09:54;;;;;;;0.30;0.30;;;;;;;;;;1804065;79;26271;-37
2021/12/16 12:12:42;;;;;;;0.35;0.35;;;;;;;;;;1796414;79;26357;-37
2021/12/16 12:15:10;;;;;;;0.20;0.20;;;;;;;;;;1791437;80;26291;-37
2021/12/16 12:17:48;;;;;;;0.20;0.20;;;;;;;;;;1793015;80;26290;-38
2021/12/16 12:20:15;;;;;;;0.10;0.10;;;;;;;;;;1782867;80;26303;-38
2021/12/16 12:22:42;;;;;;;0.42;0.20;;;;;;;;;;1814372;79;26726;-37
2021/12/16 12:25:10;;;;;;;0.30;0.30;;;;;;;;;;1810294;78;26291;-37
2021/12/16 12:27:37;;;;;;;0.13;0.13;;;;;;;;;;1800344;79;26732;-37
2021/12/16 12:30:07;;;;;;;0.20;0.20;;;;;;;;;;1795093;78;26554;-37
2021/12/16 12:32:36;;;;;;;0.33;0.20;;;;;;;;;;1801302;79;26751;-37
2021/12/16 12:35:06;;;;;;;0.30;0.30;;;;;;;;;;1789287;80;26232;-37
2021/12/16 12:37:35;;;;;;;0.20;0.20;;;;;;;;;;1789206;80;26372;-37
2021/12/16 12:40:07;;;;;;;0.55;0.20;;;;;;;;;;1780784;80;26278;-37
2021/12/16 12:42:34;;;;;;;0.68;0.20;;;;;;;;;;1766477;81;26360;-38
2021/12/16 12:45:03;;;;;;;0.00;0.00;;;;;;;;;;1795269;80;26940;-37
2021/12/16 12:47:32;;;;;;;0.30;0.30;;;;;;;;;;1771280;80;26716;-37
2021/12/16 12:50:13;;;;;;;0.62;0.10;;;;;;;;;;1810256;79;26226;-37
2021/12/16 12:52:40;;;;;;;0.23;0.23;;;;;;;;;;1809987;79;26363;-37
2021/12/16 12:55:12;;;;;;;0.30;0.20;;;;;;;;;;1810245;79;26276;-37
2021/12/16 12:57:41;;;;;;;0.20;0.20;;;;;;;;;;1802214;79;26302;-38
2021/12/16 13:00:10;;;;;;;0.10;0.10;;;;;;;;;;1790016;79;26303;-37
2021/12/16 13:02:39;;;;;;;0.88;0.20;;;;;;;;;;1793378;78;26216;-37
2021/12/16 13:05:14;;;;;;;0.13;0.13;;;;;;;;;;1795074;80;26331;-37
2021/12/16 13:07:43;;;;;;;0.20;0.20;;;;;;;;;;1827028;78;26265;-37
2021/12/16 13:10:12;;;;;;;0.10;0.10;;;;;;;;;;1809774;79;26787;-37
2021/12/16 13:12:45;;;;;;;0.10;0.10;;;;;;;;;;1780722;80;26303;-37
2021/12/16 13:15:31;;;;;;;0.10;0.10;;;;;;;;;;1780469;80;26330;-37
2021/12/16 13:23:38;;;;;;;0.00;0.00;;;;;;;;;;1783473;80;26587;-37
2021/12/16 13:28:56;;;;;;;0.20;0.20;;;;;;;;;;1804537;78;26321;-37
2021/12/16 13:31:24;;;;;;;0.03;0.03;;;;;;;;;;1808432;79;26370;-38
2021/12/16 13:33:59;;;;;;;0.00;0.00;;;;;;;;;;1810140;79;26293;-38
2021/12/16 13:36:29;;;;;;;0.20;0.20;;;;;;;;;;1808250;79;26292;-38
2021/12/16 13:38:53;;;;;;;0.10;0.10;;;;;;;;;;1800773;78;26885;-38
2021/12/16 13:41:22;;;;;;;0.10;0.10;;;;;;;;;;1795334;79;26294;-38
2021/12/16 13:44:02;;;;;;;0.10;0.10;;;;;;;;;;1780658;80;26352;-38
2021/12/16 13:46:41;;;;;;;0.05;0.05;;;;;;;;;;1781736;79;26426;-37
2021/12/16 13:58:10;;;;;;;0.62;0.40;;;;;;;;;;1832149;78;25350;-38
2021/12/16 14:01:08;;;;;;;0.10;0.10;;;;;;;;;;1804773;79;26308;-37
2021/12/16 14:03:02;;;;;;;0.13;0.13;;;;;;;;;;1792520;79;26312;-38
2021/12/16 14:05:34;;;;;;;0.17;0.17;;;;;;;;;;1786041;79;26327;-38
2021/12/16 14:08:00;;;;;;;0.00;0.00;;;;;;;;;;1783955;79;26300;-38
2021/12/16 14:11:05;;;;;;;0.23;0.20;;;;;;;;;;1798642;79;26342;-38
2021/12/16 14:16:16;;;;;;;0.10;0.10;;;;;;;;;;1804050;79;27882;-38
2021/12/16 14:24:15;;;;;;;0.00;0.00;;;;;;;;;;1795082;80;26388;-38
2021/12/16 14:26:42;;;;;;;0.10;0.10;;;;;;;;;;1819472;78;26296;-38
2021/12/16 14:37:35;;;;;;;0.10;0.10;;;;;;;;;;1804662;79;26370;-38
2021/12/16 14:40:15;;;;;;;0.00;0.00;;;;;;;;;;1813109;78;26661;-39
2021/12/16 14:43:03;;;;;;;0.20;0.20;;;;;;;;;;1857894;77;26255;-39
2021/12/16 14:48:22;;;;;;;0.30;0.30;;;;;;;;;;1881828;76;26267;-39
2021/12/16 14:50:53;;;;;;;0.10;0.10;;;;;;;;;;1873267;75;26352;-39
2021/12/16 14:53:22;;;;;;;0.10;0.10;;;;;;;;;;1865220;77;26463;-36
2021/12/16 14:55:51;;;;;;;0.10;0.10;;;;;;;;;;1855093;76;26296;-36
2021/12/16 14:58:19;;;;;;;0.10;0.10;;;;;;;;;;1862916;76;26254;-36
2021/12/16 15:01:03;;;;;;;0.20;0.20;;;;;;;;;;1837185;78;25644;-36
2021/12/16 15:03:35;;;;;;;0.10;0.10;;;;;;;;;;1791724;80;26302;-36
2021/12/16 15:06:03;;;;;;;0.10;0.10;;;;;;;;;;1837013;78;26769;-36
2021/12/16 15:08:38;;;;;;;0.00;0.00;;;;;;;;;;1792084;80;26315;-36
2021/12/16 15:11:02;;;;;;;0.10;0.10;;;;;;;;;;1791746;80;26754;-36
2021/12/16 15:13:36;;;;;;;0.10;0.10;;;;;;;;;;1837615;78;26277;-36
2021/12/16 15:16:14;;;;;;;0.15;0.15;;;;;;;;;;1835412;78;26304;-36
2021/12/16 15:40:55;;;;;;;0.10;0.10;;;;;;;;;;1868053;76;26304;-38
2021/12/16 15:43:11;;;;;;;0.05;0.05;;;;;;;;;;1881405;76;26226;-38
2021/12/16 15:45:40;;;;;;;0.10;0.10;;;;;;;;;;1884569;76;26265;-38
2021/12/16 15:48:11;;;;;;;0.20;0.20;;;;;;;;;;1881539;76;26644;-37
2021/12/16 15:50:40;;;;;;;0.10;0.10;;;;;;;;;;1868464;77;26369;-38
2021/12/16 15:53:09;;;;;;;0.03;0.03;;;;;;;;;;1857067;77;26667;-39
2021/12/16 15:55:38;;;;;;;0.10;0.10;;;;;;;;;;1867907;77;26319;-38
2021/12/16 15:58:07;;;;;;;0.33;0.17;;;;;;;;;;1860214;76;26281;-37
2021/12/16 16:00:38;;;;;;;0.53;0.28;;;;;;;;;;1862525;77;26316;-38
2021/12/16 16:03:05;;;;;;;0.10;0.10;;;;;;;;;;1864100;77;26392;-38
2021/12/16 16:05:34;;;;;;;0.20;0.20;;;;;;;;;;1867513;77;26286;-38
2021/12/16 16:08:03;;;;;;;2.27;0.30;;;;;;;;;;1864547;77;26652;-38
2021/12/16 16:10:31;;;;;;;1.45;0.30;;;;;;;;;;1867913;77;27183;-38
2021/12/16 16:13:11;;;;;;;1.55;0.17;;;;;;;;;;1863041;77;26250;-37
2021/12/16 16:15:40;;;;;;;1.90;0.70;;;;;;;;;;1842527;77;26272;-38
2021/12/16 16:18:14;;;;;;;1.40;0.42;;;;;;;;;;1838181;77;26757;-38
2021/12/16 16:20:42;;;;;;;2.58;0.45;;;;;;;;;;1862586;77;26311;-38
2021/12/16 16:23:10;;;;;;;5.95;0.40;;;;;;;;;;1839783;76;26241;-37
2021/12/16 16:25:39;;;;;;;3.50;0.42;;;;;;;;;;1853012;77;26238;-38
2021/12/16 16:28:08;;;;;;;1.75;0.30;;;;;;;;;;1862946;76;26343;-38
2021/12/16 16:30:37;;;;;;;2.98;0.53;;;;;;;;;;1867936;77;26312;-38
2021/12/16 16:33:06;;;;;;;2.67;0.45;;;;;;;;;;1866793;77;26277;-38
2021/12/16 16:35:35;;;;;;;4.67;0.37;;;;;;;;;;1861527;77;26686;-37
2021/12/16 16:38:09;;;;;;;1.07;0.57;;;;;;;;;;1846627;77;26256;-38
2021/12/16 16:40:38;;;;;;;2.92;0.42;;;;;;;;;;1868230;76;26850;-38
2021/12/16 16:43:07;;;;;;;2.27;0.57;;;;;;;;;;1890317;76;26248;-38
2021/12/16 16:45:35;;;;;;;1.67;0.50;;;;;;;;;;1887253;76;26277;-38
2021/12/16 16:48:15;;;;;;;3.95;0.50;;;;;;;;;;1896208;74;26214;-38
2021/12/16 16:50:32;;;;;;;2.83;0.50;;;;;;;;;;1886597;76;26290;-38
2021/12/16 16:53:00;;;;;;;1.62;0.47;;;;;;;;;;1878303;76;26300;-39
2021/12/16 16:55:33;;;;;;;5.58;0.50;;;;;;;;;;1883995;76;26413;-38
2021/12/16 16:57:59;;;;;;;2.50;0.68;;;;;;;;;;1889758;76;26302;-37
2021/12/16 17:00:31;;;;;;;4.87;0.60;;;;;;;;;;1882427;76;26246;-38
2021/12/16 17:03:00;;;;;;;3.42;0.80;;;;;;;;;;1890055;76;26350;-38
2021/12/16 17:05:35;;;;;;;3.27;0.62;;;;;;;;;;1888308;76;26344;-38
2021/12/16 17:08:05;;;;;;;2.37;0.40;;;;;;;;;;1890687;76;26244;-37
2021/12/16 17:10:38;;;;;;;1.92;0.40;;;;;;;;;;1890177;75;26783;-38
2021/12/16 17:13:07;;;;;;;2.12;0.40;;;;;;;;;;1889071;76;26335;-38
2021/12/16 17:15:45;;;;;;;5.08;0.62;;;;;;;;;;1884336;76;26250;-38
2021/12/16 17:18:07;;;;;;;3.50;0.50;;;;;;;;;;1880306;76;26281;-38
2021/12/16 17:20:35;;;;;;;0.70;0.60;;;;;;;;;;1889802;76;26770;-39
2021/12/16 17:23:02;;;;;;;2.47;0.60;;;;;;;;;;1891571;76;26281;-38
2021/12/16 17:25:30;;;;;;;4.78;0.70;;;;;;;;;;1888260;76;26855;-38
2021/12/16 17:27:59;;;;;;;3.80;0.53;;;;;;;;;;1877545;76;26252;-39
2021/12/16 17:30:27;;;;;;;0.45;0.40;;;;;;;;;;1890584;76;26756;-39
2021/12/16 17:32:56;;;;;;;5.40;0.60;;;;;;;;;;1890906;76;26245;-38
2021/12/16 17:35:25;;;;;;;3.65;0.40;;;;;;;;;;1889521;76;26269;-39
2021/12/16 17:37:58;;;;;;;4.03;0.78;;;;;;;;;;1891729;76;26250;-39
2021/12/16 17:40:37;;;;;;;6.92;0.80;;;;;;;;;;1885375;76;27133;-38
2021/12/16 17:43:05;;;;;;;1.02;0.50;;;;;;;;;;1862068;77;26836;-39
2021/12/16 17:45:43;;;;;;;2.30;0.47;;;;;;;;;;1868318;77;26285;-38
2021/12/16 17:48:12;;;;;;;2.20;0.50;;;;;;;;;;1864205;76;26256;-38
2021/12/16 17:50:40;;;;;;;4.90;0.50;;;;;;;;;;1862123;77;26188;-39
2021/12/16 17:53:09;;;;;;;2.77;0.50;;;;;;;;;;1853782;77;26273;-39
2021/12/16 17:55:38;;;;;;;6.60;0.70;;;;;;;;;;1866058;77;26658;-38
2021/12/16 17:58:10;;;;;;;4.20;0.62;;;;;;;;;;1867782;77;26289;-38
2021/12/16 18:00:42;;;;;;;1.30;0.60;;;;;;;;;;1865058;77;26337;-39
2021/12/16 18:03:10;;;;;;;3.25;0.40;;;;;;;;;;1863286;77;26270;-38
2021/12/16 18:05:42;;;;;;;3.80;0.53;;;;;;;;;;1861901;77;26278;-38
2021/12/16 18:08:09;;;;;;;2.15;0.68;;;;;;;;;;1863232;77;26296;-38
2021/12/16 18:10:38;;;;;;;2.72;0.57;;;;;;;;;;1862800;77;26280;-39
2021/12/16 18:13:05;;;;;;;1.87;0.53;;;;;;;;;;1864485;77;26710;-41